Latest Coastal Weather Observations for Avalon

IDV60701

Issued at 4:05 pm EDT Monday 24 November 2014 (issued every 10 minutes, with the page automatically refreshed every 10 minutes)

About coastal observations | Map of coastal stations | Coastal observations for VIC | Marine services | Other Formats
Station Details ID: 087113 Name: AVALON AIRPORT Lat: -38.03 Lon: 144.48 Height: 10.6 m
Data from the previous 72 hours. | See also: Recent months at Avalon
Date/Time
EDT
Temp

°C
Wind Pressure Rain
since 9am
mm
Weather Cloud Vis
km
Sea
Height
m
Swell
Dir
 
Speed
knots
Gust
knots
hPa Trend Height
m
Period
s
Dir
24/04:00pm 17.4 W 16 21 1006.8 - 22.4 - Partly cloudy 10 - - - -
24/03:30pm 17.1 W 17 23 1006.7 - 22.4 - Partly cloudy 10 - - - -
24/03:28pm 16.8 W 17 23 1006.7 - 22.4 - Partly cloudy 10 - - - -
24/03:00pm 17.9 W 10 18 1006.6 - 22.4 Showers Cloudy 10 - - - -
24/02:41pm 17.6 W 6 9 1006.5 - 22.2 - Partly cloudy 10 - - - -
24/02:30pm 17.6 WNW 3 6 1006.7 - 22.0 - Partly cloudy 8 - - - -
24/02:16pm 17.4 CALM 0 0 1006.6 - 21.6 - Partly cloudy 9 - - - -
24/02:00pm 17.0 NW 2 4 1006.8 - 20.8 - Partly cloudy 2 - - - -
24/01:45pm 17.1 W 4 7 1007.6 - 15.8 - Partly cloudy 5 - - - -
24/01:30pm 17.1 W 5 7 1007.2 - 13.6 - Partly cloudy 9 - - - -
24/01:05pm 17.1 NE 6 7 1007.0 - 13.0 - Partly cloudy 10 - - - -
24/01:00pm 17.2 NE 6 8 1007.0 - 13.0 - Partly cloudy 10 - - - -
24/12:53pm 17.4 NE 7 8 1007.3 - 12.8 - Partly cloudy 6 - - - -
24/12:52pm 17.3 NE 6 8 1007.4 - 12.8 - Partly cloudy 7 - - - -
24/12:31pm 17.1 ENE 9 11 1007.3 - 12.0 - Partly cloudy 10 - - - -
24/12:30pm 17.1 ENE 10 11 1007.3 - 12.0 - Partly cloudy 10 - - - -
24/12:05pm 16.7 SE 4 7 1008.6 - 12.0 - Partly cloudy 10 - - - -
24/12:00pm 16.6 E 5 7 1008.1 - 12.0 Showers Mostly cloudy 9 - - - -
24/11:49am 16.5 ENE 10 14 1008.2 - 11.4 - Partly cloudy 6 - - - -
24/11:30am 16.6 NNW 3 4 1010.3 - 7.2 - Partly cloudy 3 - - - -
24/11:22am 16.6 NNE 6 9 1010.1 - 5.8 - Partly cloudy 6 - - - -
24/11:06am 16.8 NE 7 9 1009.1 - 5.0 - Partly cloudy 10 - - - -
24/11:00am 16.5 NE 8 9 1008.9 - 5.0 - Partly cloudy 8 - - - -
24/10:52am 16.2 NNE 4 13 1008.3 - 4.6 - Partly cloudy 5 - - - -
24/10:38am 16.4 NNW 4 7 1010.3 - 3.0 - Partly cloudy 6 - - - -
24/10:30am 16.4 ENE 4 6 1009.3 - 1.8 - Partly cloudy 10 - - - -
24/10:00am 16.4 N 1 5 1009.3 - 0.8 - Partly cloudy 9 - - - -
24/09:30am 16.2 NW 3 4 1008.7 - 0.2 - Partly cloudy 10 - - - -
24/09:00am 15.9 SSW 8 9 1009.2 - 1.4 Showers Cloudy 10 - - - -
24/08:30am 15.3 SSW 7 9 1009.2 - 1.2 - Partly cloudy 10 - - - -
24/08:00am 15.1 W 11 18 1010.3 - 0.4 - Partly cloudy 9 - - - -
24/07:45am 15.7 WSW 14 18 1009.5 - 0.0 - Cloudy 10 - - - -
24/07:30am 15.7 ENE 4 6 1007.2 - 0.0 - Partly cloudy 10 - - - -
24/07:00am 14.5 ENE 3 4 1007.4 - 0.0 - - 10 - - - -
24/06:30am 13.8 CALM 0 0 1007.5 - 0.0 - - 10 - - - -
24/06:00am 13.4 E 3 5 1007.7 - 0.0 - Cloudy 10 - - - -
24/05:30am 13.5 WNW 4 5 1008.4 - 0.0 - Partly cloudy 10 - - - -
24/05:00am 12.3 NNW 5 6 1008.4 - 0.0 - - 10 - - - -
24/04:30am 12.3 NW 3 5 1008.7 - 0.0 - - 10 - - - -
24/04:00am 12.8 WSW 6 7 1009.0 - 0.0 - - 10 - - - -
24/03:30am 12.3 WSW 0 0 1009.3 - 0.0 - Mostly cloudy 10 - - - -
24/03:00am 13.0 N 4 5 1010.1 - 0.0 - Mostly cloudy 10 - - - -
24/02:30am 12.9 NNW 4 5 1010.3 - 0.0 - - 10 - - - -
24/02:00am 12.9 N 3 5 1010.8 - 0.0 - - 10 - - - -
24/01:30am 14.2 N 3 4 1011.4 - 0.0 - - 10 - - - -
24/01:00am 14.5 E 4 5 1011.7 - 0.0 - - 10 - - - -
24/12:30am 15.5 ENE 5 6 1012.2 - 0.0 - Partly cloudy 10 - - - -
24/12:00am 15.8 ENE 4 5 1012.7 - 0.0 - Partly cloudy 10 - - - -
 
Date/Time
EDT
Temp

°C
Wind Pressure Rain
since 9am
mm
Weather Cloud Vis
km
Sea
Height
m
Swell
Dir
 
Speed
knots
Gust
knots
hPa Trend Height
m
Period
s
Dir
23/11:30pm 15.9 ENE 4 5 1013.3 - 0.0 - - 10 - - - -
23/11:00pm 16.3 E 5 6 1013.5 - 0.0 - - 10 - - - -
23/10:30pm 16.7 E 6 7 1013.7 - 0.0 - - 10 - - - -
23/10:00pm 15.7 SE 6 7 1013.9 - 0.0 - - 10 - - - -
23/09:30pm 16.3 ESE 6 7 1013.7 - 0.0 - - 10 - - - -
23/09:00pm 16.2 ESE 7 8 1013.3 - 0.0 - Mostly cloudy 10 - - - -
23/08:30pm 16.4 SE 7 9 1013.4 - 0.0 - - 10 - - - -
23/08:00pm 16.9 SSE 6 8 1013.5 - 0.0 - - 10 - - - -
23/07:30pm 17.5 SSE 9 11 1013.2 - 0.0 - - 10 - - - -
23/07:00pm 17.9 SSE 10 13 1013.2 - 0.0 - - 10 - - - -
23/06:30pm 18.5 S 10 13 1012.9 - 0.0 - - 10 - - - -
23/06:00pm 18.7 S 13 16 1012.8 - 0.0 - Mostly clear 10 - - - -
23/05:30pm 18.6 S 16 19 1012.8 - 0.0 - - 10 - - - -
23/05:00pm 19.9 S 16 20 1012.3 - 0.0 - - 10 - - - -
23/04:30pm 20.2 S 17 20 1011.9 - 0.0 - - 10 - - - -
23/04:00pm 21.5 S 17 22 1011.5 - 0.0 - - 10 - - - -
23/03:30pm 23.0 S 16 23 1011.4 - 0.0 - - 10 - - - -
23/03:00pm 23.4 S 17 21 1011.3 - 0.0 - - 10 - - - -
23/02:30pm 23.9 SE 13 16 1011.1 - 0.0 - - 10 - - - -
23/02:00pm 23.4 ESE 12 15 1011.0 - 0.0 - - 10 - - - -
23/01:30pm 22.9 ESE 13 16 1011.0 - 0.0 - - 10 - - - -
23/01:00pm 22.6 ESE 13 17 1011.0 - 0.0 - - 10 - - - -
23/12:30pm 22.3 ESE 12 15 1011.3 - 0.0 - - 10 - - - -
23/12:00pm 22.2 ESE 11 14 1011.5 - 0.0 - - 10 - - - -
23/11:30am 21.2 ESE 9 13 1012.0 - 0.0 - - 10 - - - -
23/11:00am 21.6 E 6 9 1012.1 - 0.0 - - 10 - - - -
23/10:30am 20.5 S 5 11 1012.4 - 0.0 - Partly cloudy 10 - - - -
23/10:00am 19.5 S 7 10 1012.7 - 0.0 - - 10 - - - -
23/09:30am 19.5 SSW 6 8 1012.9 - 0.0 - - 10 - - - -
23/09:00am 18.4 SSW 6 9 1012.8 - 0.0 - Mostly clear 10 - - - -
23/08:30am 16.9 W 7 9 1012.7 - 0.0 - Partly cloudy 10 - - - -
23/08:00am 16.5 WSW 9 11 1012.6 - 0.0 - Partly cloudy 10 - - - -
23/07:30am 16.0 WSW 8 9 1012.2 - 0.0 - - 10 - - - -
23/07:00am 15.1 W 5 6 1011.9 - 0.0 - Partly cloudy 10 - - - -
23/06:30am 14.6 WNW 5 6 1011.7 - 0.0 - Partly cloudy 10 - - - -
23/06:00am 14.3 NNW 5 6 1011.5 - 0.0 - Cloudy 10 - - - -
23/05:30am 14.8 NW 6 8 1011.2 - 0.0 - Partly cloudy 10 - - - -
23/05:00am 14.9 WNW 5 6 1011.1 - 0.0 - Partly cloudy 10 - - - -
23/04:30am 15.6 W 7 8 1010.8 - 0.0 - Cloudy 10 - - - -
23/04:00am 15.7 W 4 5 1010.6 - 0.0 - Partly cloudy 10 - - - -
23/03:30am 15.6 W 6 8 1010.4 - 0.0 - Partly cloudy 10 - - - -
23/03:00am 16.3 W 9 14 1010.2 - 0.0 - Cloudy 10 - - - -
23/02:30am 16.0 WNW 11 14 1009.9 - 0.0 - Partly cloudy 10 - - - -
23/02:00am 16.1 WNW 8 10 1009.9 - 0.0 - - 10 - - - -
23/01:30am 16.6 WNW 9 12 1009.9 - 0.0 - - 10 - - - -
23/01:00am 17.0 WNW 9 11 1010.0 - 0.0 - - 10 - - - -
23/12:30am 17.8 WNW 9 11 1009.8 - 0.0 - - 10 - - - -
23/12:00am 17.7 WNW 8 10 1009.5 - 0.0 - - 10 - - - -
 
Date/Time
EDT
Temp

°C
Wind Pressure Rain
since 9am
mm
Weather Cloud Vis
km
Sea
Height
m
Swell
Dir
 
Speed
knots
Gust
knots
hPa Trend Height
m
Period
s
Dir
22/11:30pm 17.5 WNW 6 8 1009.2 - 0.0 - - 10 - - - -
22/11:00pm 18.1 W 7 9 1009.1 - 0.0 - - 10 - - - -
22/10:30pm 17.0 S 4 5 1009.0 - 0.0 - - 10 - - - -
22/10:00pm 17.7 S 2 4 1008.5 - 0.0 - - 10 - - - -
22/09:30pm 18.5 S 7 10 1007.7 - 0.0 - - 10 - - - -
22/09:00pm 20.0 SSW 12 17 1007.0 - 0.0 - - 10 - - - -
22/08:53pm 21.1 SSW 13 17 1006.7 - 0.0 - - 10 - - - -
22/08:30pm 26.3 W 10 13 1005.7 - 0.0 - - 10 - - - -
22/08:00pm 28.9 NNW 16 22 1004.9 - 0.0 - Partly cloudy 10 - - - -
22/07:30pm 29.6 NNW 21 31 1004.9 - 0.0 - Partly cloudy 10 - - - -
22/07:00pm 30.2 NNW 25 35 1003.9 - 0.0 - - 10 - - - -
22/06:47pm 30.7 NNW 23 34 1003.5 - 0.0 - - 10 - - - -
22/06:30pm 31.5 NNW 23 31 1003.7 - 0.0 - - 10 - - - -
22/06:10pm 32.5 NNW 23 33 1004.0 - 0.0 - Partly cloudy 10 - - - -
22/06:00pm 32.1 NNW 24 31 1004.0 - 0.0 - Mostly cloudy 10 - - - -
22/05:30pm 33.0 NNW 23 33 1003.8 - 0.0 - Partly cloudy 10 - - - -
22/05:00pm 32.8 NNW 20 31 1004.2 - 0.0 - - 10 - - - -
22/04:30pm 31.6 NNW 23 34 1004.5 - 0.0 - - 10 - - - -
22/04:24pm 31.5 NNW 22 34 1004.4 - 0.0 - - 10 - - - -
22/04:22pm 32.4 NW 21 29 1004.3 - 0.0 - - 10 - - - -
22/04:03pm 31.7 N 16 26 1004.6 - 0.0 - - 10 - - - -
22/04:00pm 32.3 N 15 20 1004.7 - 0.0 - - 10 - - - -
22/03:33pm 31.8 N 18 29 1005.3 - 0.0 - - 10 - - - -
22/03:30pm 31.9 NNW 18 26 1005.5 - 0.0 - - 10 - - - -
22/03:00pm 30.7 N 17 25 1006.3 - 0.0 - Cloudy 10 - - - -
22/02:30pm 31.7 N 16 23 1006.5 - 0.0 - Partly cloudy 10 - - - -
22/02:17pm 29.2 N 16 26 1006.8 - 0.0 - Cloudy 10 - - - -
22/02:00pm 30.1 N 13 18 1006.8 - 0.0 - Cloudy 10 - - - -
22/01:30pm 28.1 N 17 25 1007.3 - 0.0 - Partly cloudy 10 - - - -
22/01:00pm 26.7 N 15 20 1007.6 - 0.0 - Partly cloudy 10 - - - -
22/12:30pm 26.1 NNE 16 23 1007.9 - 0.0 - Partly cloudy 10 - - - -
22/12:00pm 23.9 NNE 17 25 1007.8 - 0.0 - Cloudy 10 - - - -
22/11:58am 24.0 N 16 25 1007.8 - 0.0 - Partly cloudy 10 - - - -
22/11:30am 25.3 N 13 19 1009.9 - 0.0 - Partly cloudy 10 - - - -
22/11:00am 22.1 NNE 9 12 1009.8 - 0.0 - Partly cloudy 10 - - - -
22/10:30am 20.1 NNE 9 12 1009.9 - 0.0 - Partly cloudy 10 - - - -
22/10:00am 19.0 NNE 9 11 1010.2 - 0.0 - - 10 - - - -
22/09:30am 17.7 NE 8 9 1010.3 - 0.0 - Partly cloudy 10 - - - -
22/09:00am 16.4 N 4 6 1011.1 - 0.0 - Cloudy 10 - - - -
22/08:30am 14.7 NNW 3 4 1011.0 - 0.0 - Partly cloudy 10 - - - -
22/08:00am 13.9 NW 4 6 1011.0 - 0.0 - Partly cloudy 10 - - - -
22/07:30am 13.1 NNW 4 6 1010.4 - 0.0 - - 10 - - - -
22/07:00am 11.1 W 1 4 1010.4 - 0.0 - - 10 - - - -
22/06:30am 10.5 SW 4 5 1010.5 - 0.0 - - 10 - - - -
22/06:00am 11.4 N 4 6 1010.2 - 0.0 - Mostly cloudy 10 - - - -
22/05:30am 11.7 N 7 9 1009.7 - 0.0 - - 10 - - - -
22/05:00am 10.7 N 5 7 1009.5 - 0.0 - - 10 - - - -
22/04:30am 10.5 NNW 3 4 1009.7 - 0.0 - - 10 - - - -
22/04:00am 10.7 NNE 4 5 1009.6 - 0.0 - - 10 - - - -
22/03:30am 9.7 N 5 6 1010.0 - 0.0 - - 10 - - - -
22/03:00am 10.0 N 5 7 1010.2 - 0.0 - - 10 - - - -
22/02:30am 9.9 N 5 7 1010.3 - 0.0 - - 10 - - - -
22/02:00am 10.4 N 5 6 1010.9 - 0.0 - - 10 - - - -
22/01:30am 10.6 NNW 5 6 1011.5 - 0.0 - - 10 - - - -
22/01:00am 10.4 WNW 4 5 1012.0 - 0.0 - - 10 - - - -
22/12:30am 10.7 NW 4 4 1012.4 - 0.0 - - 10 - - - -
22/12:00am 11.0 NW 3 4 1012.6 - 0.0 - - 10 - - - -
 
Date/Time
EDT
Temp

°C
Wind Pressure Rain
since 9am
mm
Weather Cloud Vis
km
Sea
Height
m
Swell
Dir
 
Speed
knots
Gust
knots
hPa Trend Height
m
Period
s
Dir
21/11:30pm 11.5 W 4 5 1013.0 - 0.0 - - 10 - - - -
21/11:00pm 11.8 CALM 0 0 1013.0 - 0.0 - - 10 - - - -
21/10:30pm 12.7 CALM 0 0 1013.0 - 0.0 - - 10 - - - -
21/10:00pm 12.0 SSE 4 5 1012.7 - 0.0 - - 10 - - - -
21/09:30pm 12.6 S 6 7 1012.7 - 0.0 - - 10 - - - -
21/09:00pm 13.4 S 7 8 1012.6 - 0.0 - - 10 - - - -
21/08:30pm 14.1 SSE 7 8 1012.5 - 0.0 - - 10 - - - -
21/08:00pm 15.4 SSE 8 10 1012.3 - 0.0 - - 10 - - - -
21/07:30pm 17.0 S 9 11 1011.7 - 0.0 - - 10 - - - -
21/07:00pm 17.9 SSE 9 11 1011.3 - 0.0 - - 10 - - - -
21/06:30pm 18.3 SSE 10 12 1011.1 - 0.0 - - 10 - - - -
21/06:00pm 19.2 SSE 10 13 1010.9 - 0.0 - - 10 - - - -
21/05:30pm 20.1 S 12 15 1010.7 - 0.0 - - 10 - - - -
21/05:00pm 20.2 SSE 10 13 1010.7 - 0.0 - - 10 - - - -
21/04:30pm 19.9 SSE 13 17 1010.7 - 0.0 - - 10 - - - -

Other Formats:

Comma delimited format used in spreadsheet applications
http://www.bom.gov.au/fwo/IDV60701/IDV60701.94854.axf

JavaScript Object Notation format (JSON) in row-major order
http://www.bom.gov.au/fwo/IDV60701/IDV60701.94854.json